createdAt,value
2017-08-29T00:00:24.178Z,15.38
2017-08-29T00:00:52.244Z,15.37
2017-08-29T00:01:20.376Z,15.44
2017-08-29T00:01:48.612Z,15.41
2017-08-29T00:02:16.988Z,15.43
2017-08-29T00:02:45.189Z,15.34
2017-08-29T00:03:13.428Z,15.37
2017-08-29T00:03:41.569Z,15.34
2017-08-29T00:04:09.683Z,15.38
2017-08-29T00:04:37.947Z,15.35
2017-08-29T00:05:06.109Z,15.35
2017-08-29T00:05:34.368Z,15.27
2017-08-29T00:06:02.585Z,15.3
2017-08-29T00:06:30.825Z,15.31
2017-08-29T00:06:58.954Z,15.25
2017-08-29T00:07:27.390Z,15.27
2017-08-29T00:07:55.512Z,15.31
2017-08-29T00:08:23.642Z,15.19
2017-08-29T00:08:51.814Z,15.16
2017-08-29T00:09:19.961Z,15.15
2017-08-29T00:09:48.106Z,15.16
2017-08-29T00:10:16.344Z,15.13
2017-08-29T00:10:44.566Z,15.15
2017-08-29T00:11:12.694Z,15.16
2017-08-29T00:11:40.887Z,15.13
2017-08-29T00:12:09.009Z,15.04
2017-08-29T00:12:37.222Z,15.1
2017-08-29T00:13:05.485Z,14.98
2017-08-29T00:13:33.720Z,15.01
2017-08-29T00:14:01.939Z,14.95
2017-08-29T00:14:30.120Z,14.95
2017-08-29T00:14:58.375Z,14.98
2017-08-29T00:15:26.482Z,15
2017-08-29T00:15:54.740Z,14.97
2017-08-29T00:16:22.778Z,14.85
2017-08-29T00:16:50.891Z,14.98
2017-08-29T00:17:19.119Z,14.98
2017-08-29T00:17:47.344Z,14.93
2017-08-29T00:18:15.483Z,14.87
2017-08-29T00:18:43.646Z,14.82
2017-08-29T00:19:11.636Z,14.94
2017-08-29T00:19:39.915Z,14.86
2017-08-29T00:20:08.138Z,14.82
2017-08-29T00:20:36.270Z,14.82
2017-08-29T00:21:04.429Z,14.79
2017-08-29T00:21:32.681Z,14.79
2017-08-29T00:22:00.597Z,14.83
2017-08-29T00:22:28.740Z,14.75
2017-08-29T00:22:56.999Z,14.79
2017-08-29T00:23:25.017Z,14.69
2017-08-29T00:23:53.207Z,14.71
2017-08-29T00:24:21.410Z,14.63
2017-08-29T00:24:49.667Z,14.67
2017-08-29T00:25:17.715Z,14.66
2017-08-29T00:25:45.941Z,14.63
2017-08-29T00:26:14.206Z,14.57
2017-08-29T00:26:42.467Z,14.6
2017-08-29T00:27:10.642Z,14.63
2017-08-29T00:27:38.894Z,14.6
2017-08-29T00:28:07.003Z,14.53
2017-08-29T00:28:35.158Z,14.61
2017-08-29T00:29:03.299Z,14.53
2017-08-29T00:29:31.505Z,14.59
2017-08-29T00:29:59.760Z,14.66
2017-08-29T00:30:27.908Z,14.6
2017-08-29T00:30:55.975Z,14.66
2017-08-29T00:31:24.278Z,14.63
2017-08-29T00:31:52.515Z,14.56
2017-08-29T00:32:20.639Z,14.63
2017-08-29T00:32:48.838Z,14.66
2017-08-29T00:33:16.960Z,14.63
2017-08-29T00:33:45.175Z,14.69
2017-08-29T00:34:13.459Z,14.63
2017-08-29T00:34:41.651Z,14.63
2017-08-29T00:35:09.687Z,14.64
2017-08-29T00:35:37.826Z,14.71
2017-08-29T00:36:06.059Z,14.77
2017-08-29T00:36:34.097Z,14.79
2017-08-29T00:37:02.157Z,14.74
2017-08-29T00:37:30.241Z,14.74
2017-08-29T00:37:58.592Z,14.77
2017-08-29T00:38:26.764Z,14.8
2017-08-29T00:38:54.918Z,14.83
2017-08-29T00:39:23.169Z,14.85
2017-08-29T00:39:51.314Z,14.8
2017-08-29T00:40:19.506Z,14.9
2017-08-29T00:40:47.507Z,14.93
2017-08-29T00:41:15.719Z,14.9
2017-08-29T00:41:43.657Z,14.95
2017-08-29T00:42:11.864Z,14.98
2017-08-29T00:42:40.013Z,14.95
2017-08-29T00:43:08.171Z,14.98
2017-08-29T00:43:36.010Z,15
2017-08-29T00:44:04.153Z,15.04
2017-08-29T00:44:32.378Z,15.02
2017-08-29T00:45:00.599Z,15
2017-08-29T00:45:28.891Z,15.05
2017-08-29T00:45:57.012Z,15.07
2017-08-29T00:46:25.064Z,15.07
2017-08-29T00:46:53.294Z,15.13
2017-08-29T00:47:21.463Z,15.12
2017-08-29T00:47:49.674Z,15.05
2017-08-29T00:48:17.944Z,15.08
2017-08-29T00:48:46.235Z,15.12
2017-08-29T00:49:14.355Z,15.15
2017-08-29T00:49:42.513Z,15.12
2017-08-29T00:50:10.451Z,15.13
2017-08-29T00:50:38.581Z,15.15
2017-08-29T00:51:06.817Z,15.07
2017-08-29T00:51:35.071Z,15.13
2017-08-29T00:52:03.305Z,15.1
2017-08-29T00:52:31.422Z,15.15
2017-08-29T00:52:59.538Z,15.15
2017-08-29T00:53:27.706Z,15.02
2017-08-29T00:53:55.957Z,15.04
2017-08-29T00:54:24.227Z,15.07
2017-08-29T00:54:52.428Z,15.01
2017-08-29T00:55:20.651Z,15.05
2017-08-29T00:55:48.746Z,14.98
2017-08-29T00:56:16.812Z,15.1
2017-08-29T00:56:45.015Z,15.04
2017-08-29T00:57:13.158Z,15.02
2017-08-29T00:57:41.302Z,15.05
2017-08-29T00:58:09.619Z,15
2017-08-29T00:58:37.783Z,15
2017-08-29T00:59:05.980Z,15.01
2017-08-29T00:59:34.257Z,15.01
2017-08-29T01:00:02.320Z,14.95
2017-08-29T01:00:30.533Z,14.97
2017-08-29T01:00:58.684Z,14.95
2017-08-29T01:01:26.979Z,14.97
2017-08-29T01:01:55.083Z,14.93
2017-08-29T01:02:23.192Z,14.98
2017-08-29T01:02:51.396Z,14.9
2017-08-29T01:03:19.591Z,14.94
2017-08-29T01:03:47.649Z,14.9
2017-08-29T01:04:15.956Z,14.89
2017-08-29T01:04:44.271Z,14.87
2017-08-29T01:05:12.513Z,14.9
2017-08-29T01:05:40.767Z,14.89
2017-08-29T01:06:08.884Z,14.9
2017-08-29T01:06:37.194Z,14.8
2017-08-29T01:07:05.351Z,14.82
2017-08-29T01:07:33.582Z,14.86
2017-08-29T01:08:01.842Z,14.71
2017-08-29T01:08:30.027Z,14.75
2017-08-29T01:08:58.228Z,14.71
2017-08-29T01:09:26.498Z,14.71
2017-08-29T01:09:54.720Z,14.67
2017-08-29T01:10:22.759Z,14.67
2017-08-29T01:10:50.867Z,14.63
2017-08-29T01:11:18.918Z,14.61
2017-08-29T01:11:47.072Z,14.56
2017-08-29T01:12:15.187Z,14.71
2017-08-29T01:12:43.428Z,14.63
2017-08-29T01:13:11.599Z,14.64
2017-08-29T01:13:39.737Z,14.59
2017-08-29T01:14:07.946Z,14.59
2017-08-29T01:14:36.075Z,14.57
2017-08-29T01:15:04.338Z,14.59
2017-08-29T01:15:32.475Z,14.6
2017-08-29T01:16:00.705Z,14.57
2017-08-29T01:16:28.986Z,14.59
2017-08-29T01:16:57.230Z,14.61
2017-08-29T01:17:25.404Z,14.6
2017-08-29T01:17:53.538Z,14.59
2017-08-29T01:18:21.734Z,14.66
2017-08-29T01:18:49.975Z,14.63
2017-08-29T01:19:18.219Z,14.59
2017-08-29T01:19:46.374Z,14.59
2017-08-29T01:20:14.499Z,14.64
2017-08-29T01:20:42.502Z,14.63
2017-08-29T01:21:10.734Z,14.67
2017-08-29T01:21:38.855Z,14.63
2017-08-29T01:22:06.967Z,14.66
2017-08-29T01:22:35.019Z,14.64
2017-08-29T01:23:03.255Z,14.71
2017-08-29T01:23:31.404Z,14.69
2017-08-29T01:23:59.639Z,14.63
2017-08-29T01:24:27.863Z,14.64
2017-08-29T01:24:56.115Z,14.75
2017-08-29T01:25:24.333Z,14.74
2017-08-29T01:25:52.551Z,14.75
2017-08-29T01:26:20.773Z,14.79
2017-08-29T01:26:48.943Z,14.7
2017-08-29T01:27:17.071Z,14.71
2017-08-29T01:27:45.202Z,14.74
2017-08-29T01:28:13.259Z,14.66
2017-08-29T01:28:41.406Z,14.82
2017-08-29T01:29:09.539Z,14.87
2017-08-29T01:29:37.800Z,14.8
2017-08-29T01:30:05.937Z,14.87
2017-08-29T01:30:34.061Z,14.86
2017-08-29T01:31:02.270Z,14.77
2017-08-29T01:31:30.337Z,14.93
2017-08-29T01:31:58.515Z,14.94
2017-08-29T01:32:26.681Z,14.93
2017-08-29T01:32:54.930Z,14.95
2017-08-29T01:33:23.112Z,14.93
2017-08-29T01:33:51.470Z,14.97
2017-08-29T01:34:19.643Z,14.98
2017-08-29T01:34:47.865Z,14.97
2017-08-29T01:35:15.954Z,15
2017-08-29T01:35:44.071Z,15
2017-08-29T01:36:12.232Z,15.02
2017-08-29T01:36:40.343Z,14.98
2017-08-29T01:37:08.577Z,15.02
2017-08-29T01:37:36.800Z,14.98
2017-08-29T01:38:04.996Z,14.98
2017-08-29T01:38:33.106Z,15
2017-08-29T01:39:01.331Z,15.01
2017-08-29T01:39:29.554Z,15.01
2017-08-29T01:39:57.773Z,15.04
2017-08-29T01:40:25.881Z,15.01
2017-08-29T01:40:54.080Z,15
2017-08-29T01:41:22.269Z,15.02
2017-08-29T01:41:50.331Z,15.07
2017-08-29T01:42:18.392Z,15.04
2017-08-29T01:42:46.432Z,15.1
2017-08-29T01:43:14.617Z,15.1
2017-08-29T01:43:42.886Z,15.13
2017-08-29T01:44:11.025Z,15.05
2017-08-29T01:44:39.239Z,15.07
2017-08-29T01:45:07.423Z,15.1
2017-08-29T01:45:35.698Z,15.04
2017-08-29T01:46:03.856Z,15.04
2017-08-29T01:46:32.056Z,15.07
2017-08-29T01:47:00.243Z,15.05
2017-08-29T01:47:28.463Z,15.04
2017-08-29T01:47:56.493Z,15.05
2017-08-29T01:48:24.701Z,15.02
2017-08-29T01:48:53.009Z,15
2017-08-29T01:49:21.277Z,15.02
2017-08-29T01:49:49.458Z,15
2017-08-29T01:50:17.638Z,15.05
2017-08-29T01:50:45.807Z,15.07
2017-08-29T01:51:13.860Z,15.04
2017-08-29T01:51:41.832Z,15.07
2017-08-29T01:52:10.118Z,15.15
2017-08-29T01:52:38.247Z,15.07
2017-08-29T01:53:06.509Z,15.04
2017-08-29T01:53:34.627Z,15.08
2017-08-29T01:54:02.948Z,15.08
2017-08-29T01:54:31.175Z,15.08
2017-08-29T01:54:59.449Z,15.08
2017-08-29T01:55:27.724Z,15.12
2017-08-29T01:55:55.852Z,15.05
2017-08-29T01:56:24.067Z,15.15
2017-08-29T01:56:52.351Z,15.1
2017-08-29T01:57:20.361Z,15.18
2017-08-29T01:57:48.465Z,15.16
2017-08-29T01:58:16.675Z,15.13
2017-08-29T01:58:44.812Z,15.13
2017-08-29T01:59:13.012Z,15.15
2017-08-29T01:59:41.267Z,15.08
2017-08-29T02:00:09.515Z,15.07
2017-08-29T02:00:37.737Z,15.13
2017-08-29T02:01:05.945Z,15.12
2017-08-29T02:01:34.041Z,15.18
2017-08-29T02:02:02.333Z,15.19
2017-08-29T02:02:30.397Z,15.13
2017-08-29T02:02:58.552Z,15.15
2017-08-29T02:03:26.709Z,15.16
2017-08-29T02:03:54.876Z,15.16
2017-08-29T02:04:22.910Z,15.15
2017-08-29T02:04:51.197Z,15.2
2017-08-29T02:05:19.301Z,15.2
2017-08-29T02:05:47.546Z,15.12
2017-08-29T02:06:15.794Z,15.19
2017-08-29T02:06:43.932Z,15.19
2017-08-29T02:07:12.154Z,15.25
2017-08-29T02:07:40.386Z,15.23
2017-08-29T02:08:08.617Z,15.25
2017-08-29T02:08:36.718Z,15.2
2017-08-29T02:09:04.975Z,15.27
2017-08-29T02:09:33.238Z,15.22
2017-08-29T02:10:01.289Z,15.15
2017-08-29T02:10:29.399Z,15.16
2017-08-29T02:10:57.538Z,15.15
2017-08-29T02:11:25.659Z,15.23
2017-08-29T02:11:53.683Z,15.2
2017-08-29T02:12:21.715Z,15.22
2017-08-29T02:12:49.873Z,15.1
2017-08-29T02:13:18.020Z,15.16
2017-08-29T02:13:46.171Z,15.16
2017-08-29T02:14:14.524Z,15.18
2017-08-29T02:14:42.700Z,15.18
2017-08-29T02:15:10.712Z,15.13
2017-08-29T02:15:38.810Z,15.13
2017-08-29T02:16:06.969Z,15.15
2017-08-29T02:16:35.109Z,15.13
2017-08-29T02:17:03.361Z,15.1
2017-08-29T02:17:31.314Z,15.08
2017-08-29T02:17:59.458Z,15.01
2017-08-29T02:18:27.686Z,15.04
2017-08-29T02:18:55.810Z,15.05
2017-08-29T02:19:23.940Z,15.07
2017-08-29T02:19:52.091Z,15.08
2017-08-29T02:20:20.081Z,15.08
2017-08-29T02:20:48.271Z,15
2017-08-29T02:21:16.584Z,14.98
2017-08-29T02:21:44.714Z,14.95
2017-08-29T02:22:12.790Z,15.01
2017-08-29T02:22:41.046Z,15.01
2017-08-29T02:23:09.249Z,14.97
2017-08-29T02:23:37.300Z,15
2017-08-29T02:24:05.573Z,15.01
2017-08-29T02:24:33.981Z,14.98
2017-08-29T02:25:02.040Z,15.01
2017-08-29T02:25:30.266Z,14.97
2017-08-29T02:25:58.495Z,15
2017-08-29T02:26:26.652Z,15.01
2017-08-29T02:26:54.796Z,14.95
2017-08-29T02:27:22.682Z,14.93
2017-08-29T02:27:50.893Z,14.94
2017-08-29T02:28:19.062Z,14.89
2017-08-29T02:28:47.336Z,14.93
2017-08-29T02:29:15.385Z,14.95
2017-08-29T02:29:43.606Z,14.9
2017-08-29T02:30:11.832Z,14.97
2017-08-29T02:30:40.085Z,14.9
2017-08-29T02:31:08.069Z,14.93
2017-08-29T02:31:36.194Z,14.89
2017-08-29T02:32:04.341Z,14.94
2017-08-29T02:32:32.576Z,14.93
2017-08-29T02:33:00.846Z,14.87
2017-08-29T02:33:28.938Z,14.9
2017-08-29T02:33:57.123Z,14.8
2017-08-29T02:34:25.324Z,14.8
2017-08-29T02:34:53.390Z,14.82
2017-08-29T02:35:21.644Z,14.83
2017-08-29T02:35:49.841Z,14.71
2017-08-29T02:36:18.033Z,14.85
2017-08-29T02:36:46.276Z,14.75
2017-08-29T02:37:14.306Z,14.71
2017-08-29T02:37:42.488Z,14.7
2017-08-29T02:38:10.643Z,14.7
2017-08-29T02:38:38.758Z,14.66
2017-08-29T02:39:07.036Z,14.61
2017-08-29T02:39:35.377Z,14.66
2017-08-29T02:40:03.536Z,14.66
2017-08-29T02:40:31.674Z,14.66
2017-08-29T02:40:59.923Z,14.52
2017-08-29T02:41:28.137Z,14.56
2017-08-29T02:41:56.244Z,14.53
2017-08-29T02:42:24.378Z,14.44
2017-08-29T02:42:52.503Z,14.52
2017-08-29T02:43:20.704Z,14.52
2017-08-29T02:43:48.860Z,14.52
2017-08-29T02:44:16.966Z,14.46
2017-08-29T02:44:45.196Z,14.49
2017-08-29T02:45:13.432Z,14.52
2017-08-29T02:45:41.740Z,14.46
2017-08-29T02:46:10.036Z,14.46
2017-08-29T02:46:38.269Z,14.46
2017-08-29T02:47:06.506Z,14.49
2017-08-29T02:47:34.741Z,14.42
2017-08-29T02:48:03.036Z,14.41
2017-08-29T02:48:31.272Z,14.38
2017-08-29T02:48:59.557Z,14.41
2017-08-29T02:49:27.695Z,14.38
2017-08-29T02:49:55.952Z,14.31
2017-08-29T02:50:24.212Z,14.33
2017-08-29T02:50:52.235Z,14.34
2017-08-29T02:51:20.454Z,14.3
2017-08-29T02:51:48.640Z,14.31
2017-08-29T02:52:16.896Z,14.3
2017-08-29T02:52:45.118Z,14.24
2017-08-29T02:53:13.374Z,14.26
2017-08-29T02:53:41.677Z,14.27
2017-08-29T02:54:09.957Z,14.19
2017-08-29T02:54:38.238Z,14.23
2017-08-29T02:55:06.554Z,14.26
2017-08-29T02:55:34.621Z,14.23
2017-08-29T02:56:02.760Z,14.23
2017-08-29T02:56:30.915Z,14.2
2017-08-29T02:56:59.202Z,14.28
2017-08-29T02:57:27.417Z,14.28
2017-08-29T02:57:55.354Z,14.33
2017-08-29T02:58:23.507Z,14.3
2017-08-29T02:58:51.621Z,14.38
2017-08-29T02:59:19.877Z,14.3
2017-08-29T02:59:48.188Z,14.24
2017-08-29T03:00:16.401Z,14.26
2017-08-29T03:00:44.657Z,14.27
2017-08-29T03:01:12.872Z,14.19
2017-08-29T03:01:41.093Z,14.23
2017-08-29T03:02:09.311Z,14.21
2017-08-29T03:02:37.409Z,14.2
2017-08-29T03:03:05.743Z,14.16
2017-08-29T03:03:34.076Z,14.19
2017-08-29T03:04:02.127Z,14.16
2017-08-29T03:04:30.244Z,14.16
2017-08-29T03:04:58.535Z,14.16
2017-08-29T03:05:26.834Z,14.21
2017-08-29T03:05:55.041Z,14.19
2017-08-29T03:06:22.839Z,14.16
2017-08-29T03:06:50.842Z,14.19
2017-08-29T03:07:19.078Z,14.23
2017-08-29T03:07:47.312Z,14.2
2017-08-29T03:08:15.497Z,14.19
2017-08-29T03:08:43.746Z,14.2
2017-08-29T03:09:11.909Z,14.26
2017-08-29T03:09:40.145Z,14.16
2017-08-29T03:10:08.376Z,14.33
2017-08-29T03:10:36.501Z,14.26
2017-08-29T03:11:04.672Z,14.2
2017-08-29T03:11:32.940Z,14.36
2017-08-29T03:12:01.152Z,14.31
2017-08-29T03:12:29.321Z,14.33
2017-08-29T03:12:57.493Z,14.31
2017-08-29T03:13:25.754Z,14.36
2017-08-29T03:13:53.943Z,14.31
2017-08-29T03:14:21.939Z,14.24
2017-08-29T03:14:49.940Z,14.19
2017-08-29T03:15:18.070Z,14.21
2017-08-29T03:15:46.275Z,14.23
2017-08-29T03:16:14.548Z,14.2
2017-08-29T03:16:42.787Z,14.2
2017-08-29T03:17:10.863Z,14.16
2017-08-29T03:17:39.025Z,14.21
2017-08-29T03:18:07.252Z,14.16
2017-08-29T03:18:35.398Z,14.08
2017-08-29T03:19:03.628Z,14.19
2017-08-29T03:19:31.778Z,14.12
2017-08-29T03:20:00.024Z,14.2
2017-08-29T03:20:28.368Z,14.16
2017-08-29T03:20:56.606Z,14.19
2017-08-29T03:21:24.879Z,14.16
2017-08-29T03:21:53.107Z,14.16
2017-08-29T03:22:21.233Z,14.19
2017-08-29T03:22:49.332Z,14.09
2017-08-29T03:23:17.428Z,14.12
2017-08-29T03:23:45.720Z,14.15
2017-08-29T03:24:13.968Z,14.16
2017-08-29T03:24:42.215Z,14.15
2017-08-29T03:25:10.564Z,14.2
2017-08-29T03:25:38.647Z,14.16
2017-08-29T03:26:06.737Z,14.19
2017-08-29T03:26:35.006Z,14.2
2017-08-29T03:27:03.220Z,14.23
2017-08-29T03:27:31.378Z,14.26
2017-08-29T03:27:59.549Z,14.28
2017-08-29T03:28:27.791Z,14.23
2017-08-29T03:28:56.010Z,14.2
2017-08-29T03:29:24.168Z,14.2
2017-08-29T03:30:20.943Z,14.21
2017-08-29T03:30:49.160Z,14.2
2017-08-29T03:31:17.242Z,14.24
2017-08-29T03:31:45.347Z,14.27
2017-08-29T03:32:13.634Z,14.21
2017-08-29T03:32:41.804Z,14.26
2017-08-29T03:33:10.052Z,14.24
2017-08-29T03:33:38.147Z,14.21
2017-08-29T03:34:06.430Z,14.2
2017-08-29T03:34:34.607Z,14.16
2017-08-29T03:35:02.874Z,14.13
2017-08-29T03:35:31.160Z,14.21
2017-08-29T03:35:59.298Z,14.2
2017-08-29T03:36:27.193Z,14.08
2017-08-29T03:36:55.298Z,14.2
2017-08-29T03:37:23.557Z,14.19
2017-08-29T03:37:51.830Z,14.2
2017-08-29T03:38:19.901Z,14.16
2017-08-29T03:38:48.056Z,14.19
2017-08-29T03:39:16.152Z,14.16
2017-08-29T03:39:44.295Z,14.21
2017-08-29T03:40:12.458Z,14.08
2017-08-29T03:40:40.709Z,14.08
2017-08-29T03:41:08.860Z,14.09
2017-08-29T03:41:37.015Z,14.11
2017-08-29T03:42:05.125Z,14.11
2017-08-29T03:42:33.366Z,14.16
2017-08-29T03:43:01.513Z,14.06
2017-08-29T03:43:29.728Z,14.03
2017-08-29T03:43:57.751Z,14.01
2017-08-29T03:44:25.866Z,13.99
2017-08-29T03:44:54.033Z,14.03
2017-08-29T03:45:22.342Z,14.01
2017-08-29T03:45:50.666Z,14.08
2017-08-29T03:46:18.839Z,13.99
2017-08-29T03:46:47.055Z,14.01
2017-08-29T03:47:15.208Z,13.97
2017-08-29T03:47:43.442Z,13.94
2017-08-29T03:48:11.444Z,13.95
2017-08-29T03:48:39.703Z,13.93
2017-08-29T03:49:07.853Z,13.97
2017-08-29T03:49:36.114Z,13.91
2017-08-29T03:50:04.369Z,13.97
2017-08-29T03:50:32.466Z,13.94
2017-08-29T03:51:00.657Z,13.93
2017-08-29T03:51:28.801Z,13.91
2017-08-29T03:51:56.962Z,13.93
2017-08-29T03:52:25.184Z,13.93
2017-08-29T03:52:53.376Z,13.93
2017-08-29T03:53:21.330Z,13.94
2017-08-29T03:53:49.542Z,13.86
2017-08-29T03:54:17.690Z,13.88
2017-08-29T03:54:45.907Z,13.88
2017-08-29T03:55:14.166Z,13.87
2017-08-29T03:55:42.524Z,13.84
2017-08-29T03:56:10.746Z,13.76
2017-08-29T03:56:38.902Z,13.75
2017-08-29T03:57:07.142Z,13.7
2017-08-29T03:57:35.393Z,13.7
2017-08-29T03:58:03.608Z,13.7
2017-08-29T03:58:31.684Z,13.66
2017-08-29T03:58:59.927Z,13.72
2017-08-29T03:59:28.162Z,13.69
2017-08-29T03:59:56.422Z,13.65
2017-08-29T04:00:24.653Z,13.62
2017-08-29T04:00:53.022Z,13.65
2017-08-29T04:01:21.255Z,13.73
2017-08-29T04:01:49.406Z,13.75
2017-08-29T04:02:17.581Z,13.72
2017-08-29T04:02:45.843Z,13.7
2017-08-29T04:03:13.963Z,13.73
2017-08-29T04:03:42.159Z,13.76
2017-08-29T04:04:10.391Z,13.75
2017-08-29T04:04:38.619Z,13.75
2017-08-29T04:05:06.736Z,13.72
2017-08-29T04:05:34.881Z,13.72
2017-08-29T04:06:03.208Z,13.84
2017-08-29T04:06:31.444Z,13.76
2017-08-29T04:06:59.484Z,13.78
2017-08-29T04:07:27.545Z,13.75
2017-08-29T04:07:55.834Z,13.76
2017-08-29T04:08:24.075Z,13.75
2017-08-29T04:08:52.295Z,13.75
2017-08-29T04:09:20.494Z,13.81
2017-08-29T04:09:48.710Z,13.75
2017-08-29T04:10:16.963Z,13.83
2017-08-29T04:10:45.212Z,13.83
2017-08-29T04:11:13.560Z,13.83
2017-08-29T04:11:41.686Z,13.84
2017-08-29T04:12:09.907Z,13.86
2017-08-29T04:12:38.070Z,13.86
2017-08-29T04:13:06.182Z,13.87
2017-08-29T04:13:34.311Z,13.93
2017-08-29T04:14:02.441Z,13.88
2017-08-29T04:14:30.666Z,13.9
2017-08-29T04:14:58.921Z,13.91
2017-08-29T04:15:27.054Z,13.97
2017-08-29T04:15:55.366Z,13.91
2017-08-29T04:16:23.483Z,14.01
2017-08-29T04:16:51.693Z,13.9
2017-08-29T04:17:19.802Z,13.95
2017-08-29T04:17:48.008Z,13.99
2017-08-29T04:18:16.274Z,13.97
2017-08-29T04:18:44.353Z,13.97
2017-08-29T04:19:12.628Z,13.94
2017-08-29T04:19:40.792Z,13.97
2017-08-29T04:20:08.881Z,13.93
2017-08-29T04:20:36.763Z,13.99
2017-08-29T04:21:04.882Z,14.01
2017-08-29T04:21:33.097Z,14.01
2017-08-29T04:22:01.354Z,14.01
2017-08-29T04:22:29.478Z,14.02
2017-08-29T04:22:57.455Z,13.99
2017-08-29T04:23:25.744Z,14.05
2017-08-29T04:23:53.977Z,14.05
2017-08-29T04:24:22.068Z,14.09
2017-08-29T04:24:50.339Z,14.05
2017-08-29T04:25:18.505Z,14.13
2017-08-29T04:25:46.561Z,14.09
2017-08-29T04:26:14.785Z,14.08
2017-08-29T04:26:42.989Z,14.06
2017-08-29T04:27:10.828Z,14.06
2017-08-29T04:27:39.091Z,14.06
2017-08-29T04:28:07.347Z,14.06
2017-08-29T04:28:35.632Z,14.09
2017-08-29T04:29:03.652Z,14.08
2017-08-29T04:29:31.653Z,14.06
2017-08-29T04:29:59.864Z,14.12
2017-08-29T04:30:28.030Z,14.06
2017-08-29T04:30:56.161Z,14.09
2017-08-29T04:31:24.318Z,14.16
2017-08-29T04:31:52.456Z,14.12
2017-08-29T04:32:20.714Z,14.09
2017-08-29T04:32:48.804Z,14.11
2017-08-29T04:33:16.989Z,14.16
2017-08-29T04:33:45.232Z,14.16
2017-08-29T04:34:13.399Z,14.09
2017-08-29T04:34:41.614Z,14.11
2017-08-29T04:35:09.857Z,14.12
2017-08-29T04:35:38.089Z,14.09
2017-08-29T04:36:06.200Z,14.03
2017-08-29T04:36:34.314Z,14.11
2017-08-29T04:37:02.486Z,14.03
2017-08-29T04:37:30.723Z,14.08
2017-08-29T04:37:58.893Z,14.03
2017-08-29T04:38:27.106Z,14.11
2017-08-29T04:38:55.236Z,14.09
2017-08-29T04:39:23.410Z,14.06
2017-08-29T04:39:51.628Z,14.06
2017-08-29T04:40:19.675Z,14.11
2017-08-29T04:40:47.877Z,14.05
2017-08-29T04:41:16.074Z,14.13
2017-08-29T04:41:44.198Z,14.01
2017-08-29T04:42:12.329Z,14.03
2017-08-29T04:42:40.512Z,14.01
2017-08-29T04:43:08.771Z,13.97
2017-08-29T04:43:36.899Z,14.01
2017-08-29T04:44:05.140Z,13.93
2017-08-29T04:44:33.383Z,13.99
2017-08-29T04:45:01.622Z,13.99
2017-08-29T04:45:29.812Z,13.95
2017-08-29T04:45:57.979Z,13.95
2017-08-29T04:46:26.343Z,13.91
2017-08-29T04:46:54.507Z,13.93
2017-08-29T04:47:22.742Z,13.95
2017-08-29T04:47:50.854Z,13.94
2017-08-29T04:48:19.081Z,13.95
2017-08-29T04:48:47.236Z,13.97
2017-08-29T04:49:15.369Z,13.91
2017-08-29T04:49:43.536Z,13.88
2017-08-29T04:50:11.768Z,13.87
2017-08-29T04:50:39.910Z,13.87
2017-08-29T04:51:08.004Z,13.9
2017-08-29T04:51:36.355Z,13.93
2017-08-29T04:52:04.458Z,13.88
2017-08-29T04:52:32.605Z,13.84
2017-08-29T04:53:00.881Z,13.9
2017-08-29T04:53:28.932Z,13.87
2017-08-29T04:53:57.183Z,13.81
2017-08-29T04:54:25.442Z,13.81
2017-08-29T04:54:53.563Z,13.72
2017-08-29T04:55:21.698Z,13.75
2017-08-29T04:55:49.916Z,13.79
2017-08-29T04:56:18.048Z,13.72
2017-08-29T04:56:46.386Z,13.7
2017-08-29T04:57:14.523Z,13.76
2017-08-29T04:57:42.665Z,13.73
2017-08-29T04:58:10.857Z,13.75
2017-08-29T04:58:39.031Z,13.68
2017-08-29T04:59:07.226Z,13.78
2017-08-29T04:59:35.262Z,13.72
2017-08-29T05:00:03.418Z,13.73
2017-08-29T05:00:31.618Z,13.76
2017-08-29T05:00:59.889Z,13.69
2017-08-29T05:01:28.005Z,13.63
2017-08-29T05:01:56.331Z,13.66
2017-08-29T05:02:24.570Z,13.63
2017-08-29T05:02:52.812Z,13.63
2017-08-29T05:03:21.137Z,13.58
2017-08-29T05:03:49.350Z,13.53
2017-08-29T05:04:17.450Z,13.55
2017-08-29T05:04:45.687Z,13.53
2017-08-29T05:05:13.980Z,13.51
2017-08-29T05:05:42.040Z,13.51
2017-08-29T05:06:10.197Z,13.44
2017-08-29T05:06:38.587Z,13.53
2017-08-29T05:07:06.820Z,13.48
2017-08-29T05:07:34.949Z,13.45
2017-08-29T05:08:03.111Z,13.53
2017-08-29T05:08:31.347Z,13.42
2017-08-29T05:08:59.578Z,13.48
2017-08-29T05:09:27.751Z,13.44
2017-08-29T05:09:56.023Z,13.42
2017-08-29T05:10:24.269Z,13.31
2017-08-29T05:10:52.531Z,13.29
2017-08-29T05:11:20.768Z,13.24
2017-08-29T05:11:48.984Z,13.25
2017-08-29T05:12:17.099Z,13.21
2017-08-29T05:12:45.331Z,13.16
2017-08-29T05:13:13.536Z,13.17
2017-08-29T05:13:41.795Z,13.16
2017-08-29T05:14:09.915Z,13.14
2017-08-29T05:14:38.038Z,13.13
2017-08-29T05:15:06.144Z,13.09
2017-08-29T05:15:34.415Z,13.03
2017-08-29T05:16:02.616Z,13.13
2017-08-29T05:16:30.662Z,13.03
2017-08-29T05:16:58.887Z,13.11
2017-08-29T05:17:26.920Z,13.1
2017-08-29T05:17:55.157Z,13.16
2017-08-29T05:18:23.293Z,13.1
2017-08-29T05:18:51.573Z,13.16
2017-08-29T05:19:19.815Z,13.2
2017-08-29T05:19:48.063Z,13.21
2017-08-29T05:20:16.241Z,13.25
2017-08-29T05:20:44.398Z,13.25
2017-08-29T05:21:12.624Z,13.25
2017-08-29T05:21:40.849Z,13.25
2017-08-29T05:22:08.981Z,13.19
2017-08-29T05:22:37.116Z,13.21
2017-08-29T05:23:05.269Z,13.25
2017-08-29T05:23:33.482Z,13.14
2017-08-29T05:24:01.568Z,13.16
2017-08-29T05:24:29.567Z,13.11
2017-08-29T05:24:57.677Z,13.11
2017-08-29T05:25:25.915Z,13.09
2017-08-29T05:25:54.180Z,13.03
2017-08-29T05:26:22.312Z,13.02
2017-08-29T05:26:50.622Z,12.98
2017-08-29T05:27:18.942Z,12.91
2017-08-29T05:27:47.170Z,12.95
2017-08-29T05:28:15.417Z,12.84
2017-08-29T05:28:43.531Z,12.84
2017-08-29T05:29:11.704Z,12.83
2017-08-29T05:29:39.743Z,12.78
2017-08-29T05:30:07.853Z,12.73
2017-08-29T05:30:36.009Z,12.61
2017-08-29T05:31:04.121Z,12.62
2017-08-29T05:31:32.379Z,12.63
2017-08-29T05:32:00.615Z,12.69
2017-08-29T05:32:28.807Z,12.69
2017-08-29T05:32:56.955Z,12.58
2017-08-29T05:33:25.068Z,12.73
2017-08-29T05:33:53.301Z,12.58
2017-08-29T05:34:21.433Z,12.65
2017-08-29T05:34:49.709Z,12.63
2017-08-29T05:35:17.843Z,12.65
2017-08-29T05:35:45.969Z,12.69
2017-08-29T05:36:14.186Z,12.66
2017-08-29T05:36:42.382Z,12.65
2017-08-29T05:37:10.705Z,12.62
2017-08-29T05:37:38.855Z,12.66
2017-08-29T05:38:07.051Z,12.63
2017-08-29T05:38:35.075Z,12.66
2017-08-29T05:39:03.299Z,12.65
2017-08-29T05:39:31.511Z,12.65
2017-08-29T05:39:59.737Z,12.61
2017-08-29T05:40:27.995Z,12.65
2017-08-29T05:40:56.249Z,12.63
2017-08-29T05:41:24.438Z,12.65
2017-08-29T05:41:52.655Z,12.62
2017-08-29T05:42:20.910Z,12.66
2017-08-29T05:42:49.199Z,12.63
2017-08-29T05:43:17.479Z,12.65
2017-08-29T05:43:45.660Z,12.62
2017-08-29T05:44:13.788Z,12.69
2017-08-29T05:44:41.976Z,12.66
2017-08-29T05:45:10.195Z,12.63
2017-08-29T05:45:38.298Z,12.7
2017-08-29T05:46:06.585Z,12.65
2017-08-29T05:46:34.692Z,12.7
2017-08-29T05:47:02.927Z,12.74
2017-08-29T05:47:31.176Z,12.69
2017-08-29T05:47:59.363Z,12.69
2017-08-29T05:48:27.566Z,12.76
2017-08-29T05:48:55.812Z,12.71
2017-08-29T05:49:24.063Z,12.76
2017-08-29T05:49:52.139Z,12.83
2017-08-29T05:50:20.171Z,12.83
2017-08-29T05:50:48.410Z,12.76
2017-08-29T05:51:16.567Z,12.76
2017-08-29T05:51:44.752Z,12.77
2017-08-29T05:52:12.866Z,12.59
2017-08-29T05:52:41.226Z,12.69
2017-08-29T05:53:09.361Z,12.61
2017-08-29T05:53:37.524Z,12.63
2017-08-29T05:54:05.666Z,12.63
2017-08-29T05:54:33.749Z,12.53
2017-08-29T05:55:01.894Z,12.53
2017-08-29T05:55:30.175Z,12.48
2017-08-29T05:55:58.417Z,12.65
2017-08-29T05:56:26.649Z,12.45
2017-08-29T05:56:54.882Z,12.52
2017-08-29T05:57:23.040Z,12.48
2017-08-29T05:57:51.234Z,12.43
2017-08-29T05:58:19.493Z,12.43
2017-08-29T05:58:47.739Z,12.44
2017-08-29T05:59:15.889Z,12.4
2017-08-29T05:59:44.150Z,12.36
2017-08-29T06:00:12.386Z,12.34
2017-08-29T06:00:40.553Z,12.36
2017-08-29T06:01:08.633Z,12.4
2017-08-29T06:01:36.913Z,12.33
2017-08-29T06:02:05.033Z,12.34
2017-08-29T06:02:33.336Z,12.28
2017-08-29T06:03:01.596Z,12.34
2017-08-29T06:03:29.867Z,12.33
2017-08-29T06:03:58.074Z,12.25
2017-08-29T06:04:26.199Z,12.28
2017-08-29T06:04:54.457Z,12.28
2017-08-29T06:05:22.704Z,12.13